Time;durP1;ratioP1;P1;durP2;ratioP2;P2;SDS_P1;SDS_P2;PMS_P1;PMS_P2;Temp;Humidity;BMP_temperature;BMP_pressure;BME280_temperature;BME280_humidity;BME280_pressure;Samples;Min_cycle;Max_cycle;Signal;HPM_P1;HPM_P2
2022/02/09 00:09:13;;;;;;;;;;;;;;;29.92;18.75;101207.00;5077095;28;788;-43
2022/02/09 00:11:49;;;;;;;;;;;;;;;30.01;18.37;101224.81;5076873;28;1957;-45
2022/02/09 00:14:25;;;;;;;;;;;;;;;29.33;19.23;101226.69;5076977;28;865;-44
2022/02/09 00:20:12;;;;;;;;;;;;;;;29.41;19.25;101228.44;5065380;28;772;-44
2022/02/09 00:22:34;;;;;;;;;;;;;;;29.36;19.56;101230.91;5076162;28;1238;-44
2022/02/09 01:40:40;;;;;;;;;;;;;;;28.57;18.19;101251.91;5075437;28;614;-44
2022/02/09 01:44:01;;;;;;;;;;;;;;;28.14;18.77;101249.63;5075856;28;1345;-45
2022/02/09 01:56:53;;;;;;;;;;;;;;;27.53;19.28;101261.84;5075592;28;788;-44
2022/02/09 01:59:18;;;;;;;;;;;;;;;27.46;19.50;101269.81;5075764;28;869;-44
2022/02/09 02:01:44;;;;;;;;;;;;;;;27.32;19.63;101266.78;5073222;28;823;-44
2022/02/09 02:04:09;;;;;;;;;;;;;;;27.32;19.51;101274.91;5070791;28;896;-44
2022/02/09 02:06:35;;;;;;;;;;;;;;;27.06;19.88;101272.41;5075296;28;865;-44
2022/02/09 02:09:00;;;;;;;;;;;;;;;26.90;19.88;101284.84;5077894;28;868;-44
2022/02/09 02:16:54;;;;;;;;;;;;;;;26.57;20.43;101285.69;5062075;28;1071;-43
2022/02/09 02:26:54;;;;;;;;;;;;;;;27.54;19.75;101287.84;5071911;28;757;-44
2022/02/09 03:17:17;;;;;;;;;;;;;;;27.82;19.40;101295.56;5071733;28;768;-44
2022/02/09 03:54:09;;;;;;;;;;;;;;;27.71;19.15;101289.50;5053303;28;936;-44
2022/02/09 03:59:06;;;;;;;;;;;;;;;27.71;19.23;101294.91;5076585;28;729;-45
2022/02/09 04:01:35;;;;;;;;;;;;;;;28.20;18.94;101293.03;5076756;28;951;-46
2022/02/09 04:04:01;;;;;;;;;;;;;;;28.54;18.59;101290.16;5073236;28;880;-46
2022/02/09 04:06:32;;;;;;;;;;;;;;;28.76;18.27;101287.63;5076514;28;829;-45
2022/02/09 04:08:59;;;;;;;;;;;;;;;29.00;17.76;101300.16;5076440;28;860;-45
2022/02/09 04:11:31;;;;;;;;;;;;;;;29.13;17.72;101296.00;5076735;28;1985;-45
2022/02/09 04:19:37;;;;;;;;;;;;;;;28.22;18.46;101306.38;5074163;28;1028;-44
2022/02/09 04:52:28;;;;;;;;;;;;;;;25.36;12.43;101309.88;5075853;28;1976;-42
2022/02/09 04:57:02;;;;;;;;;;;;;;;24.01;13.15;101317.53;5078027;28;1443;-42
2022/02/09 05:28:37;;;;;;;;;;;;;;;22.17;14.34;101352.94;5075383;28;678;-42
2022/02/09 05:31:06;;;;;;;;;;;;;;;22.62;15.06;101354.41;5073124;28;1905;-42
2022/02/09 05:33:31;;;;;;;;;;;;;;;22.41;14.20;101359.78;5068961;28;1510;-43
2022/02/09 05:35:56;;;;;;;;;;;;;;;22.75;14.81;101360.31;5073344;28;909;-42
2022/02/09 05:38:22;;;;;;;;;;;;;;;21.80;15.01;101357.00;5071746;28;784;-43
2022/02/09 05:40:47;;;;;;;;;;;;;;;21.33;14.80;101358.19;5075748;28;1085;-43
2022/02/09 05:43:13;;;;;;;;;;;;;;;21.01;14.66;101359.91;5077103;28;892;-44
2022/02/09 05:50:54;;;;;;;;;;;;;;;21.33;14.86;101367.06;5077244;28;1905;-43
2022/02/09 05:53:26;;;;;;;;;;;;;;;20.57;15.45;101370.56;5080103;28;933;-42
2022/02/09 05:56:07;;;;;;;;;;;;;;;20.12;15.84;101373.09;5079469;28;757;-43
2022/02/09 05:58:36;;;;;;;;;;;;;;;21.45;16.11;101372.38;5079147;28;872;-43
2022/02/09 06:01:02;;;;;;;;;;;;;;;24.28;14.08;101391.16;5079037;28;926;-43
2022/02/09 06:03:27;;;;;;;;;;;;;;;25.46;13.34;101387.88;5075114;28;921;-43
2022/02/09 06:05:52;;;;;;;;;;;;;;;25.77;13.44;101395.53;5069243;28;853;-43
2022/02/09 06:08:18;;;;;;;;;;;;;;;26.16;13.51;101399.63;5075164;28;1498;-41
2022/02/09 06:10:50;;;;;;;;;;;;;;;26.25;13.96;101409.47;5079193;28;1933;-44
2022/02/09 06:13:34;;;;;;;;;;;;;;;26.51;13.95;101411.28;5078935;28;1046;-43
2022/02/09 06:21:12;;;;;;;;;;;;;;;26.02;14.75;101401.94;5075558;28;1295;-44
2022/02/09 06:23:37;;;;;;;;;;;;;;;24.96;15.59;101406.28;5077525;28;1209;-41
2022/02/09 06:26:02;;;;;;;;;;;;;;;24.43;15.97;101406.81;5076753;28;1146;-44
2022/02/09 06:28:29;;;;;;;;;;;;;;;24.06;17.02;101406.63;5077955;28;826;-43
2022/02/09 06:30:56;;;;;;;;;;;;;;;24.03;17.09;101408.75;5078433;28;1947;-43
2022/02/09 06:33:21;;;;;;;;;;;;;;;23.60;17.42;101414.50;5082541;28;1475;-43
2022/02/09 06:35:48;;;;;;;;;;;;;;;23.19;17.28;101411.94;5075560;28;884;-43
2022/02/09 06:38:13;;;;;;;;;;;;;;;23.36;17.65;101421.13;5084352;28;1415;-35
2022/02/09 06:40:43;;;;;;;;;;;;;;;23.79;18.14;101416.31;5073246;28;1372;-32
2022/02/09 06:43:08;;;;;;;;;;;;;;;23.35;18.22;101416.75;5071829;28;1322;-37
2022/02/09 06:45:37;;;;;;;;;;;;;;;23.66;18.59;101415.75;5077302;28;1206;-33
2022/02/09 06:48:02;;;;;;;;;;;;;;;24.41;19.21;101417.72;5077930;28;1464;-32
2022/02/09 06:50:36;;;;;;;;;;;;;;;24.69;18.23;101415.03;5074316;28;1967;-35
2022/02/09 06:53:16;;;;;;;;;;;;;;;24.79;19.07;101428.41;5074030;28;1419;-36
2022/02/09 06:55:50;;;;;;;;;;;;;;;25.21;17.66;101422.66;5076000;28;1226;-37
2022/02/09 06:58:19;;;;;;;;;;;;;;;25.08;17.01;101421.19;5073654;28;983;-37
2022/02/09 07:00:45;;;;;;;;;;;;;;;24.83;17.72;101427.13;5075675;28;1165;-33
2022/02/09 07:03:10;;;;;;;;;;;;;;;25.00;17.14;101426.47;5073904;28;1187;-35
2022/02/09 07:05:35;;;;;;;;;;;;;;;25.17;17.65;101420.25;5074071;28;1237;-38
2022/02/09 07:08:01;;;;;;;;;;;;;;;25.80;17.42;101416.78;5071001;28;1151;-37
2022/02/09 07:10:26;;;;;;;;;;;;;;;25.91;16.94;101427.28;5070109;28;1890;-38
2022/02/09 07:12:51;;;;;;;;;;;;;;;25.94;17.26;101423.44;5076737;28;1267;-34
2022/02/09 07:15:26;;;;;;;;;;;;;;;26.03;17.13;101414.41;5074283;28;1242;-36
2022/02/09 07:17:52;;;;;;;;;;;;;;;26.14;16.82;101413.25;5070013;28;1222;-33
2022/02/09 07:20:21;;;;;;;;;;;;;;;26.31;16.22;101415.22;5072081;28;1140;-35
2022/02/09 07:22:49;;;;;;;;;;;;;;;26.34;16.10;101413.06;5070129;28;1170;-39
2022/02/09 07:25:17;;;;;;;;;;;;;;;26.41;16.12;101407.84;5075398;28;1277;-40
2022/02/09 07:30:15;;;;;;;;;;;;;;;26.13;16.49;101414.28;5076550;28;1973;-39
2022/02/09 07:32:40;;;;;;;;;;;;;;;26.24;16.34;101413.16;5070586;28;1236;-38
2022/02/09 07:35:05;;;;;;;;;;;;;;;26.72;15.97;101411.84;5074885;28;1157;-39
2022/02/09 07:37:31;;;;;;;;;;;;;;;26.88;16.15;101413.75;5073103;28;2486;-40
2022/02/09 07:39:58;;;;;;;;;;;;;;;26.48;15.71;101416.16;5076053;28;1348;-40
2022/02/09 07:42:27;;;;;;;;;;;;;;;26.18;16.34;101413.78;5067898;28;1275;-39
2022/02/09 07:45:07;;;;;;;;;;;;;;;25.84;16.84;101417.31;5068441;28;1276;-39
2022/02/09 07:47:43;;;;;;;;;;;;;;;25.66;16.92;101412.78;5070663;28;1135;-39
2022/02/09 07:50:30;;;;;;;;;;;;;;;25.59;16.74;101423.31;5074082;28;1910;-39
2022/02/09 07:53:14;;;;;;;;;;;;;;;25.53;16.51;101421.25;5073765;28;1361;-41
2022/02/09 07:55:39;;;;;;;;;;;;;;;26.26;16.16;101411.13;5074716;28;1379;-41
2022/02/09 07:58:05;;;;;;;;;;;;;;;26.35;16.61;101409.38;5075876;28;1257;-41
2022/02/09 08:00:30;;;;;;;;;;;;;;;26.38;15.48;101408.19;5075709;28;1269;-40
2022/02/09 08:02:57;;;;;;;;;;;;;;;26.01;15.52;101407.47;5073379;28;1266;-40
2022/02/09 08:05:22;;;;;;;;;;;;;;;25.82;15.54;101412.06;5070367;28;1205;-39
2022/02/09 08:07:48;;;;;;;;;;;;;;;25.83;15.65;101405.66;5075526;28;1353;-39
2022/02/09 08:10:20;;;;;;;;;;;;;;;26.10;15.31;101400.25;5068760;28;1897;-39
2022/02/09 08:20:27;;;;;;;;;;;;;;;26.40;15.28;101404.34;5063834;28;1018;-40
2022/02/09 08:34:29;;;;;;;;;;;;;;;26.81;17.07;101410.84;5068417;28;1230;-42
2022/02/09 08:36:56;;;;;;;;;;;;;;;26.89;17.30;101408.19;5074267;28;821;-42
2022/02/09 08:39:21;;;;;;;;;;;;;;;26.85;17.53;101408.69;5067423;28;1284;-39
2022/02/09 08:41:46;;;;;;;;;;;;;;;26.85;17.59;101412.22;5072181;28;1238;-40
2022/02/09 08:44:12;;;;;;;;;;;;;;;26.66;18.18;101410.66;5069514;28;1333;-37
2022/02/09 08:46:37;;;;;;;;;;;;;;;26.61;18.33;101415.72;5073083;28;1158;-40
2022/02/09 08:49:03;;;;;;;;;;;;;;;26.82;17.79;101431.47;5072923;28;1306;-39
2022/02/09 08:51:28;;;;;;;;;;;;;;;27.44;17.40;101433.94;5072650;28;1902;-40
2022/02/09 08:53:54;;;;;;;;;;;;;;;27.36;17.55;101435.63;5075369;28;1264;-39
2022/02/09 08:56:19;;;;;;;;;;;;;;;27.04;17.93;101434.59;5073425;28;1205;-41
2022/02/09 08:58:45;;;;;;;;;;;;;;;26.98;18.41;101438.75;5074315;28;1280;-42
2022/02/09 09:01:22;;;;;;;;;;;;;;;27.21;18.11;101442.72;5073401;28;1155;-40
2022/02/09 09:03:51;;;;;;;;;;;;;;;27.23;18.28;101448.75;5071346;28;1373;-39
2022/02/09 09:06:22;;;;;;;;;;;;;;;27.16;18.23;101442.38;5063575;28;1225;-40
2022/02/09 09:31:06;;;;;;;;;;;;;;;27.42;18.71;101442.22;5029752;28;1256;-42
2022/02/09 10:03:26;;;;;;;;;;;;;;;25.60;18.16;101440.34;5073705;28;1360;-39
2022/02/09 10:33:30;;;;;;;;;;;;;;;26.55;18.02;101441.47;5072347;28;1260;-40
2022/02/09 10:36:12;;;;;;;;;;;;;;;26.58;16.58;101441.16;5068465;28;1341;-40
2022/02/09 10:38:39;;;;;;;;;;;;;;;26.51;16.28;101445.50;5075621;28;1194;-41
2022/02/09 10:41:08;;;;;;;;;;;;;;;26.33;15.69;101457.22;5069157;28;1415;-40
2022/02/09 10:43:36;;;;;;;;;;;;;;;26.33;15.79;101416.75;5073623;28;1395;-39
2022/02/09 10:46:14;;;;;;;;;;;;;;;26.60;16.42;101431.03;5077500;28;1212;-40
2022/02/09 10:49:02;;;;;;;;;;;;;;;26.60;17.44;101411.31;5075751;28;1256;-40
2022/02/09 10:51:36;;;;;;;;;;;;;;;26.64;17.81;101418.09;5076799;28;1910;-39
2022/02/09 10:54:11;;;;;;;;;;;;;;;26.80;18.41;101409.19;5075311;28;1252;-39
2022/02/09 10:56:40;;;;;;;;;;;;;;;26.91;17.82;101413.41;5074268;28;1280;-38
2022/02/09 10:59:06;;;;;;;;;;;;;;;26.82;17.87;101414.41;5075566;28;1359;-40
2022/02/09 11:01:33;;;;;;;;;;;;;;;26.70;17.99;101425.50;5072624;28;1220;-37
2022/02/09 11:03:58;;;;;;;;;;;;;;;26.66;18.39;101416.03;5072707;28;1268;-39
2022/02/09 11:06:25;;;;;;;;;;;;;;;26.69;18.36;101422.97;5065916;28;1550;-39
2022/02/09 11:08:51;;;;;;;;;;;;;;;26.82;18.34;101420.66;5070353;28;1387;-40
2022/02/09 11:11:16;;;;;;;;;;;;;;;26.82;18.09;101423.38;5074679;28;1906;-38
2022/02/09 11:13:42;;;;;;;;;;;;;;;26.94;19.15;101429.31;5068384;28;1366;-39
2022/02/09 11:16:07;;;;;;;;;;;;;;;27.08;18.56;101429.66;5074230;28;1410;-40
2022/02/09 11:18:33;;;;;;;;;;;;;;;27.25;18.53;101427.84;5069089;28;1264;-41
2022/02/09 11:20:59;;;;;;;;;;;;;;;27.30;18.31;101422.78;5068893;28;1694;-41
2022/02/09 11:23:50;;;;;;;;;;;;;;;27.16;17.18;101426.16;5070047;28;1461;-41
2022/02/09 11:26:28;;;;;;;;;;;;;;;27.26;17.37;101418.72;5061668;28;1314;-41
2022/02/09 11:29:17;;;;;;;;;;;;;;;27.28;18.10;101427.50;5075264;28;1176;-42
2022/02/09 11:32:45;;;;;;;;;;;;;;;27.47;18.83;101420.94;5071405;28;1897;-40
2022/02/09 11:37:33;;;;;;;;;;;;;;;27.36;18.08;101423.97;5068387;28;1256;-38
2022/02/09 11:40:01;;;;;;;;;;;;;;;27.30;18.78;101424.63;5071204;28;1319;-39
2022/02/09 11:42:44;;;;;;;;;;;;;;;27.34;18.67;101429.53;5075643;28;1341;-39
2022/02/09 11:48:25;;;;;;;;;;;;;;;27.19;18.78;101428.53;5069374;28;1279;-38
2022/02/09 11:57:02;;;;;;;;;;;;;;;26.84;17.39;101444.78;5073663;28;1570;-39
2022/02/09 12:10:07;;;;;;;;;;;;;;;27.34;17.19;101434.09;5075857;28;1909;-40
2022/02/09 12:12:57;;;;;;;;;;;;;;;27.49;18.17;101453.19;5074652;28;1233;-41
2022/02/09 12:16:02;;;;;;;;;;;;;;;27.07;16.24;101445.06;5072610;28;1204;-39
2022/02/09 12:18:30;;;;;;;;;;;;;;;26.81;16.28;101439.72;5074079;28;1255;-38
2022/02/09 12:21:14;;;;;;;;;;;;;;;26.88;16.11;101449.69;5075977;28;1242;-39
2022/02/09 12:23:41;;;;;;;;;;;;;;;26.61;16.44;101448.09;5073711;28;1230;-39
2022/02/09 12:26:07;;;;;;;;;;;;;;;26.71;16.25;101458.75;5073607;28;1257;-39
2022/02/09 12:28:37;;;;;;;;;;;;;;;26.70;16.36;101446.25;5074885;28;1186;-38
2022/02/09 12:31:03;;;;;;;;;;;;;;;26.81;16.31;101454.03;5073214;28;2259;-39
2022/02/09 12:33:28;;;;;;;;;;;;;;;27.13;16.43;101457.03;5073896;28;1154;-38
2022/02/09 12:36:00;;;;;;;;;;;;;;;26.61;15.81;101465.09;5074114;28;1322;-40
2022/02/09 12:38:28;;;;;;;;;;;;;;;25.96;15.82;101463.72;5071585;28;1366;-41
2022/02/09 12:41:12;;;;;;;;;;;;;;;25.81;15.95;101453.50;5073201;28;1293;-41
2022/02/09 12:43:50;;;;;;;;;;;;;;;25.75;15.94;101464.91;5073315;28;1186;-41
2022/02/09 12:46:16;;;;;;;;;;;;;;;25.29;15.96;101458.56;5075389;28;1452;-41
2022/02/09 12:48:41;;;;;;;;;;;;;;;26.07;16.53;101455.38;5072415;28;1202;-40
2022/02/09 12:51:06;;;;;;;;;;;;;;;26.44;16.39;101455.25;5070850;28;1906;-41
2022/02/09 12:53:32;;;;;;;;;;;;;;;26.57;16.34;101460.19;5071069;28;1222;-40
2022/02/09 12:55:57;;;;;;;;;;;;;;;26.57;16.11;101465.59;5075405;28;1007;-41
2022/02/09 12:58:23;;;;;;;;;;;;;;;26.53;16.81;101459.69;5072773;28;1233;-41
2022/02/09 13:00:48;;;;;;;;;;;;;;;25.94;16.65;101355.19;5070005;28;1112;-39
2022/02/09 13:03:15;;;;;;;;;;;;;;;26.59;16.10;101460.91;5067348;28;1368;-39
2022/02/09 13:05:53;;;;;;;;;;;;;;;26.69;16.75;101458.06;5068892;28;1523;-39
2022/02/09 13:08:19;;;;;;;;;;;;;;;26.68;17.49;101448.25;5075044;28;1150;-40
2022/02/09 13:10:45;;;;;;;;;;;;;;;26.69;17.39;101455.38;5074438;28;1953;-41
2022/02/09 13:16:09;;;;;;;;;;;;;;;26.90;17.53;101455.78;5072172;28;1253;-40
2022/02/09 13:19:09;;;;;;;;;;;;;;;26.81;18.04;101447.81;5068550;28;1750;-40
2022/02/09 13:24:27;;;;;;;;;;;;;;;26.81;18.42;101453.22;5071910;28;1234;-41
2022/02/09 14:11:12;;;;;;;;;;;;;;;26.49;19.71;101479.91;5073616;28;1958;-41
2022/02/09 14:55:47;;;;;;;;;;;;;;;26.90;19.55;101528.66;5076452;28;1392;-40
2022/02/09 14:58:14;;;;;;;;;;;;;;;26.43;20.05;101532.63;5072988;28;1427;-40
2022/02/09 15:03:48;;;;;;;;;;;;;;;26.62;18.07;101542.38;5040781;28;1445;-40
2022/02/09 15:16:34;;;;;;;;;;;;;;;26.78;18.71;101543.44;5077770;28;700;-41
2022/02/09 15:19:13;;;;;;;;;;;;;;;26.41;19.00;101550.81;5078284;28;800;-41
2022/02/09 15:24:25;;;;;;;;;;;;;;;26.65;19.74;101550.16;5076499;28;800;-41
2022/02/09 15:26:52;;;;;;;;;;;;;;;26.81;19.64;101545.81;5075598;28;813;-42
2022/02/09 15:29:18;;;;;;;;;;;;;;;26.73;19.11;101553.88;5079872;28;1348;-46
2022/02/09 15:31:53;;;;;;;;;;;;;;;26.27;19.66;101569.28;5079994;28;1961;-46
2022/02/09 15:34:45;;;;;;;;;;;;;;;26.31;20.07;101569.78;5075533;28;1249;-44
2022/02/09 15:37:20;;;;;;;;;;;;;;;26.22;20.30;101568.03;5076701;28;1428;-43
2022/02/09 15:39:49;;;;;;;;;;;;;;;26.42;20.13;101574.13;5073745;28;833;-44
2022/02/09 16:21:59;;;;;;;;;;;;;;;25.47;21.81;101638.22;5076575;28;713;-47
2022/02/09 16:48:56;;;;;;;;;;;;;;;24.36;19.58;101653.09;5058501;28;1309;-41
2022/02/09 16:51:23;;;;;;;;;;;;;;;24.75;18.54;101655.75;5075975;28;1969;-39
2022/02/09 16:56:48;;;;;;;;;;;;;;;24.43;19.27;101657.75;5072999;28;721;-38
2022/02/09 17:18:48;;;;;;;;;;;;;;;25.56;20.39;101675.03;5073057;28;1079;-36
2022/02/09 17:21:30;;;;;;;;;;;;;;;25.46;21.00;101681.47;5016097;28;1476;-36
2022/02/09 17:23:57;;;;;;;;;;;;;;;25.37;21.23;101675.13;5063286;28;1035;-36
2022/02/09 17:26:23;;;;;;;;;;;;;;;25.26;21.34;101687.78;5072805;28;1146;-37
2022/02/09 17:29:09;;;;;;;;;;;;;;;25.44;20.70;101693.22;5073828;28;1087;-36
2022/02/09 17:31:42;;;;;;;;;;;;;;;25.38;20.81;101695.66;5074504;28;1970;-36
2022/02/09 17:58:20;;;;;;;;;;;;;;;25.36;21.48;101716.53;5078525;28;796;-41
2022/02/09 18:00:47;;;;;;;;;;;;;;;25.17;21.78;101713.72;5079233;28;932;-40
2022/02/09 18:03:12;;;;;;;;;;;;;;;25.07;21.73;101715.63;5078180;28;855;-41
2022/02/09 18:05:47;;;;;;;;;;;;;;;25.01;21.69;101718.88;5073310;28;860;-40
2022/02/09 18:08:30;;;;;;;;;;;;;;;24.91;21.82;101714.38;5078607;28;856;-40
2022/02/09 18:42:50;;;;;;;;;;;;;;;24.90;22.69;101752.16;5078415;28;753;-38
2022/02/09 18:45:57;;;;;;;;;;;;;;;24.78;22.87;101746.09;5078060;28;1417;-39
2022/02/09 18:59:23;;;;;;;;;;;;;;;24.83;22.74;101749.19;5077658;28;697;-38
2022/02/09 19:03:59;;;;;;;;;;;;;;;24.82;22.71;101760.97;5065878;28;832;-38
2022/02/09 19:07:11;;;;;;;;;;;;;;;24.74;22.78;101767.03;5073035;28;935;-38
2022/02/09 19:17:21;;;;;;;;;;;;;;;28.87;17.71;101784.63;5072320;28;1212;-42
2022/02/09 19:46:40;;;;;;;;;;;;;;;29.36;17.34;101804.56;5076731;28;671;-41
2022/02/09 19:49:20;;;;;;;;;;;;;;;29.42;17.44;101796.59;5069740;28;1071;-42
2022/02/09 19:52:02;;;;;;;;;;;;;;;29.29;17.26;101799.84;5077205;28;1965;-39
2022/02/09 19:55:04;;;;;;;;;;;;;;;29.32;17.47;101804.94;5076184;28;879;-41
2022/02/09 19:57:13;;;;;;;;;;;;;;;29.38;17.49;101807.97;5076661;28;1428;-40
2022/02/09 19:59:40;;;;;;;;;;;;;;;29.50;17.30;101806.56;5076878;28;801;-38
2022/02/09 20:02:10;;;;;;;;;;;;;;;29.48;17.44;101815.91;5075564;28;879;-40
2022/02/09 20:04:38;;;;;;;;;;;;;;;29.49;17.31;101818.44;5072137;28;831;-38
2022/02/09 20:07:03;;;;;;;;;;;;;;;29.61;17.37;101818.94;5076111;28;900;-39
2022/02/09 20:09:29;;;;;;;;;;;;;;;29.58;17.24;101821.94;5076348;28;1659;-40
2022/02/09 20:11:54;;;;;;;;;;;;;;;29.68;17.19;101822.63;5076964;28;1894;-39
2022/02/09 20:14:20;;;;;;;;;;;;;;;29.58;17.33;101816.53;5076574;28;940;-40
2022/02/09 20:16:45;;;;;;;;;;;;;;;29.60;17.41;101819.94;5076075;28;761;-40
2022/02/09 20:19:12;;;;;;;;;;;;;;;29.75;17.21;101825.50;5076125;28;915;-41
2022/02/09 20:21:37;;;;;;;;;;;;;;;29.72;17.18;101825.00;5076596;28;852;-39
2022/02/09 20:24:04;;;;;;;;;;;;;;;29.68;17.39;101819.94;5076342;28;801;-39
2022/02/09 20:26:30;;;;;;;;;;;;;;;29.70;17.23;101825.16;5076716;28;1016;-38
2022/02/09 20:29:09;;;;;;;;;;;;;;;29.61;17.36;101829.78;5076415;28;833;-39
2022/02/09 20:31:44;;;;;;;;;;;;;;;29.72;17.30;101828.56;5069695;28;1945;-39
2022/02/09 20:34:20;;;;;;;;;;;;;;;29.85;17.13;101840.69;5069860;28;911;-41
2022/02/09 20:36:46;;;;;;;;;;;;;;;29.80;17.22;101835.81;5076704;28;1157;-40
2022/02/09 20:39:17;;;;;;;;;;;;;;;29.75;16.93;101830.91;5076069;28;881;-41
2022/02/09 20:41:43;;;;;;;;;;;;;;;29.86;16.96;101831.56;5076359;28;962;-40
2022/02/09 20:46:43;;;;;;;;;;;;;;;29.78;17.17;101832.47;5076378;28;757;-40
2022/02/09 20:49:08;;;;;;;;;;;;;;;29.76;16.99;101831.78;5070308;28;953;-39
2022/02/09 20:51:34;;;;;;;;;;;;;;;29.75;17.25;101828.22;5075798;28;1898;-39
2022/02/09 20:53:59;;;;;;;;;;;;;;;29.81;17.17;101837.53;5074068;28;1236;-39
2022/02/09 20:56:24;;;;;;;;;;;;;;;29.75;17.26;101832.78;5071182;28;1190;-40
2022/02/09 20:58:56;;;;;;;;;;;;;;;29.82;17.00;101842.78;5075632;28;859;-40
2022/02/09 21:01:28;;;;;;;;;;;;;;;29.80;17.06;101836.66;5075766;28;805;-40
2022/02/09 21:04:00;;;;;;;;;;;;;;;29.81;16.87;101841.06;5075638;28;972;-39
2022/02/09 21:09:23;;;;;;;;;;;;;;;29.78;17.09;101841.41;5076003;28;784;-40
2022/02/09 21:26:28;;;;;;;;;;;;;;;29.51;17.22;101848.91;5072318;28;1320;-38
2022/02/09 21:31:43;;;;;;;;;;;;;;;29.61;17.19;101846.06;5072362;28;1902;-40
2022/02/09 21:52:27;;;;;;;;;;;;;;;29.78;16.95;101841.41;5066832;28;1914;-39
2022/02/09 21:54:55;;;;;;;;;;;;;;;29.79;17.05;101845.84;5066409;28;1310;-38
2022/02/09 21:57:34;;;;;;;;;;;;;;;29.82;17.02;101856.34;5070708;28;1418;-39
2022/02/09 22:26:43;;;;;;;;;;;;;;;29.93;16.90;101852.38;5064883;28;1288;-40
2022/02/09 22:48:01;;;;;;;;;;;;;;;29.86;17.14;101851.41;5074746;28;1382;-39
2022/02/09 22:50:39;;;;;;;;;;;;;;;29.74;17.11;101842.81;5069798;28;1914;-39
2022/02/09 22:55:49;;;;;;;;;;;;;;;29.65;17.27;101846.53;5068023;28;1312;-39
2022/02/09 22:58:15;;;;;;;;;;;;;;;29.63;17.29;101846.72;5070851;28;1616;-38
2022/02/09 23:06:15;;;;;;;;;;;;;;;29.80;17.15;101843.94;5067261;28;1292;-39
2022/02/09 23:11:52;;;;;;;;;;;;;;;29.78;17.21;101846.84;5062771;28;1902;-39
2022/02/09 23:22:58;;;;;;;;;;;;;;;29.29;17.70;101855.91;5077123;28;840;-37
2022/02/09 23:52:39;;;;;;;;;;;;;;;29.36;17.48;101854.22;5071122;28;877;-38
